createdAt,value
2023-02-05T00:00:11.150Z,2.3
2023-02-05T00:01:14.808Z,2.3
2023-02-05T00:02:18.098Z,2.3
2023-02-05T00:03:22.299Z,2.3
2023-02-05T00:04:26.520Z,2.3
2023-02-05T00:05:29.502Z,2.3
2023-02-05T00:06:33.252Z,2.3
2023-02-05T00:07:36.340Z,2.2
2023-02-05T00:08:40.058Z,2.2
2023-02-05T00:09:43.305Z,2.2
2023-02-05T00:10:46.685Z,2.2
2023-02-05T00:11:49.754Z,2.2
2023-02-05T00:12:53.742Z,2.2
2023-02-05T00:13:56.276Z,2.1
2023-02-05T00:15:00.174Z,2.2
2023-02-05T00:16:03.573Z,2.2
2023-02-05T00:17:06.877Z,2.1
2023-02-05T00:18:10.286Z,2.1
2023-02-05T00:19:13.420Z,2.1
2023-02-05T00:20:16.864Z,2.1
2023-02-05T00:21:20.570Z,2.1
2023-02-05T00:22:23.435Z,2
2023-02-05T00:23:26.781Z,2
2023-02-05T00:24:30.401Z,2
2023-02-05T00:25:34.790Z,2
2023-02-05T00:26:39.129Z,2
2023-02-05T00:27:43.369Z,2
2023-02-05T00:28:46.916Z,2
2023-02-05T00:29:50.781Z,2
2023-02-05T00:30:55.197Z,2
2023-02-05T00:31:58.836Z,2
2023-02-05T00:33:02.000Z,2
2023-02-05T00:34:05.106Z,2
2023-02-05T00:35:07.612Z,2
2023-02-05T00:36:13.473Z,2
2023-02-05T00:37:16.857Z,2
2023-02-05T00:38:20.537Z,1.9
2023-02-05T00:39:23.879Z,1.9
2023-02-05T00:40:42.150Z,1.9
2023-02-05T00:41:45.278Z,1.9
2023-02-05T00:42:47.781Z,1.9
2023-02-05T00:43:51.045Z,1.8
2023-02-05T00:44:54.470Z,1.8
2023-02-05T00:45:58.847Z,1.7
2023-02-05T00:47:02.002Z,1.7
2023-02-05T00:48:05.088Z,1.7
2023-02-05T00:49:08.241Z,1.7
2023-02-05T00:50:11.652Z,1.7
2023-02-05T00:51:13.825Z,1.6
2023-02-05T00:52:17.371Z,1.6
2023-02-05T00:53:20.877Z,1.6
2023-02-05T00:54:23.853Z,1.6
2023-02-05T00:55:26.872Z,1.6
2023-02-05T00:56:30.508Z,1.6
2023-02-05T00:57:34.202Z,1.6
2023-02-05T00:58:38.196Z,1.6
2023-02-05T00:59:41.886Z,1.6
2023-02-05T01:00:45.325Z,1.6
2023-02-05T01:01:49.548Z,1.6
2023-02-05T01:02:53.235Z,1.6
2023-02-05T01:03:56.232Z,1.6
2023-02-05T01:04:59.370Z,1.6
2023-02-05T01:06:02.815Z,1.6
2023-02-05T01:07:06.436Z,1.6
2023-02-05T01:08:09.189Z,1.5
2023-02-05T01:09:11.900Z,1.5
2023-02-05T01:10:15.885Z,1.5
2023-02-05T01:11:18.707Z,1.5
2023-02-05T01:12:21.485Z,1.5
2023-02-05T01:13:24.912Z,1.5
2023-02-05T01:14:27.968Z,1.5
2023-02-05T01:15:31.101Z,1.5
2023-02-05T01:16:35.776Z,1.5
2023-02-05T01:17:39.834Z,1.5
2023-02-05T01:18:43.458Z,1.5
2023-02-05T01:19:46.536Z,1.5
2023-02-05T01:20:49.322Z,1.5
2023-02-05T01:21:52.827Z,1.4
2023-02-05T01:22:56.092Z,1.4
2023-02-05T01:23:59.246Z,1.4
2023-02-05T01:25:03.280Z,1.4
2023-02-05T01:26:05.802Z,1.4
2023-02-05T01:27:08.785Z,1.4
2023-02-05T01:28:11.677Z,1.4
2023-02-05T01:29:15.054Z,1.4
2023-02-05T01:30:18.247Z,1.4
2023-02-05T01:31:21.695Z,1.4
2023-02-05T01:32:26.030Z,1.3
2023-02-05T01:33:30.113Z,1.3
2023-02-05T01:34:33.202Z,1.3
2023-02-05T01:35:37.244Z,1.3
2023-02-05T01:36:39.943Z,1.3
2023-02-05T01:37:42.735Z,1.3
2023-02-05T01:38:45.643Z,1.3
2023-02-05T01:39:48.919Z,1.3
2023-02-05T01:40:51.900Z,1.2
2023-02-05T01:41:54.891Z,1.2
2023-02-05T01:42:58.219Z,1.2
2023-02-05T01:44:01.338Z,1.2
2023-02-05T01:45:04.055Z,1.2
2023-02-05T01:46:08.014Z,1.2
2023-02-05T01:47:11.162Z,1.2
2023-02-05T01:48:14.495Z,1.2
2023-02-05T01:49:18.624Z,1.2
2023-02-05T01:50:21.330Z,1.2
2023-02-05T01:51:24.744Z,1.2
2023-02-05T01:52:28.167Z,1.2
2023-02-05T01:53:31.512Z,1.2
2023-02-05T01:54:35.059Z,1.1
2023-02-05T01:55:38.792Z,1.1
2023-02-05T01:56:42.247Z,1.2
2023-02-05T01:57:45.379Z,1.1
2023-02-05T01:58:48.794Z,1.1
2023-02-05T01:59:52.258Z,1.1
2023-02-05T02:00:55.455Z,1.1
2023-02-05T02:01:59.051Z,1.1
2023-02-05T02:03:02.075Z,1.1
2023-02-05T02:04:05.186Z,1.1
2023-02-05T02:05:09.421Z,1.1
2023-02-05T02:06:12.753Z,1.1
2023-02-05T02:07:15.708Z,1.1
2023-02-05T02:08:18.448Z,1.1
2023-02-05T02:09:21.385Z,1.1
2023-02-05T02:10:25.377Z,1.1
2023-02-05T02:11:28.745Z,1.1
2023-02-05T02:12:31.899Z,1.1
2023-02-05T02:13:35.360Z,1.1
2023-02-05T02:14:39.253Z,1.1
2023-02-05T02:15:42.210Z,1.1
2023-02-05T02:16:45.152Z,1.1
2023-02-05T02:17:48.139Z,1.1
2023-02-05T02:18:51.864Z,1.1
2023-02-05T02:19:55.287Z,1
2023-02-05T02:20:59.398Z,1
2023-02-05T02:22:02.483Z,1
2023-02-05T02:23:05.852Z,1
2023-02-05T02:24:09.035Z,0.9
2023-02-05T02:25:12.167Z,0.9
2023-02-05T02:26:15.636Z,0.9
2023-02-05T02:27:19.768Z,0.9
2023-02-05T02:28:23.133Z,0.9
2023-02-05T02:29:26.126Z,0.9
2023-02-05T02:30:29.037Z,0.9
2023-02-05T02:31:31.942Z,0.9
2023-02-05T02:32:35.554Z,0.9
2023-02-05T02:33:38.703Z,0.9
2023-02-05T02:34:41.493Z,0.9
2023-02-05T02:35:45.093Z,0.9
2023-02-05T02:36:48.900Z,0.9
2023-02-05T02:37:52.236Z,0.9
2023-02-05T02:38:55.613Z,0.9
2023-02-05T02:39:58.955Z,0.9
2023-02-05T02:41:02.316Z,0.9
2023-02-05T02:42:05.651Z,0.9
2023-02-05T02:43:08.984Z,0.9
2023-02-05T02:44:11.985Z,0.9
2023-02-05T02:45:14.817Z,0.9
2023-02-05T02:46:17.719Z,0.9
2023-02-05T02:47:21.164Z,0.9
2023-02-05T02:48:24.253Z,0.9
2023-02-05T02:49:27.690Z,0.9
2023-02-05T02:50:31.414Z,0.8
2023-02-05T02:51:35.268Z,0.9
2023-02-05T02:52:39.444Z,0.9
2023-02-05T02:53:42.613Z,0.9
2023-02-05T02:54:45.685Z,0.9
2023-02-05T02:55:49.177Z,0.9
2023-02-05T02:56:52.355Z,0.9
2023-02-05T02:57:55.405Z,0.9
2023-02-05T02:58:58.477Z,0.9
2023-02-05T03:00:01.191Z,0.9
2023-02-05T03:01:04.085Z,0.9
2023-02-05T03:02:07.950Z,0.9
2023-02-05T03:03:10.982Z,0.8
2023-02-05T03:04:14.287Z,0.8
2023-02-05T03:05:17.334Z,0.8
2023-02-05T03:06:20.833Z,0.8
2023-02-05T03:07:23.692Z,0.8
2023-02-05T03:08:27.528Z,0.8
2023-02-05T03:09:30.674Z,0.8
2023-02-05T03:10:33.710Z,0.7
2023-02-05T03:11:37.345Z,0.8
2023-02-05T03:12:40.696Z,0.8
2023-02-05T03:13:44.059Z,0.8
2023-02-05T03:14:47.443Z,0.8
2023-02-05T03:15:51.099Z,0.8
2023-02-05T03:16:54.996Z,0.8
2023-02-05T03:17:58.729Z,0.8
2023-02-05T03:19:01.232Z,0.8
2023-02-05T03:20:04.291Z,0.8
2023-02-05T03:21:07.985Z,0.8
2023-02-05T03:22:11.438Z,0.8
2023-02-05T03:23:14.853Z,0.8
2023-02-05T03:24:19.010Z,0.8
2023-02-05T03:25:21.737Z,0.8
2023-02-05T03:26:25.416Z,0.9
2023-02-05T03:27:28.421Z,0.9
2023-02-05T03:28:31.535Z,0.9
2023-02-05T03:29:35.063Z,0.9
2023-02-05T03:30:38.020Z,0.8
2023-02-05T03:31:42.106Z,0.8
2023-02-05T03:32:45.660Z,0.8
2023-02-05T03:33:48.759Z,0.8
2023-02-05T03:34:51.544Z,0.8
2023-02-05T03:35:54.684Z,0.8
2023-02-05T03:36:57.767Z,0.8
2023-02-05T03:38:01.500Z,0.8
2023-02-05T03:39:05.461Z,0.8
2023-02-05T03:40:09.632Z,0.8
2023-02-05T03:41:12.725Z,0.8
2023-02-05T03:42:15.512Z,0.8
2023-02-05T03:43:17.464Z,0.8
2023-02-05T03:44:21.081Z,0.8
2023-02-05T03:45:24.124Z,0.8
2023-02-05T03:46:27.726Z,0.8
2023-02-05T03:47:31.083Z,0.8
2023-02-05T03:48:34.082Z,0.8
2023-02-05T03:49:37.436Z,0.8
2023-02-05T03:50:40.793Z,0.8
2023-02-05T03:51:44.145Z,0.8
2023-02-05T03:52:47.487Z,0.8
2023-02-05T03:53:50.625Z,0.8
2023-02-05T03:54:54.414Z,0.8
2023-02-05T03:55:58.577Z,0.9
2023-02-05T03:57:01.575Z,0.8
2023-02-05T03:58:04.915Z,0.9
2023-02-05T03:59:08.365Z,0.9
2023-02-05T04:00:11.797Z,0.9
2023-02-05T04:01:15.277Z,0.9
2023-02-05T04:02:18.433Z,0.9
2023-02-05T04:03:21.739Z,0.9
2023-02-05T04:04:25.174Z,0.9
2023-02-05T04:05:28.854Z,0.9
2023-02-05T04:06:32.071Z,0.9
2023-02-05T04:07:35.678Z,0.9
2023-02-05T04:08:38.595Z,1
2023-02-05T04:09:42.063Z,1
2023-02-05T04:10:45.850Z,1
2023-02-05T04:11:49.990Z,1
2023-02-05T04:12:53.388Z,1
2023-02-05T04:13:56.545Z,1
2023-02-05T04:15:00.194Z,1
2023-02-05T04:16:03.438Z,1
2023-02-05T04:17:07.035Z,1
2023-02-05T04:18:10.489Z,1
2023-02-05T04:19:13.909Z,1
2023-02-05T04:20:17.005Z,1
2023-02-05T04:21:20.744Z,1
2023-02-05T04:22:23.740Z,1
2023-02-05T04:23:26.324Z,1
2023-02-05T04:24:29.327Z,1
2023-02-05T04:25:33.362Z,1
2023-02-05T04:26:37.260Z,1
2023-02-05T04:27:41.496Z,1
2023-02-05T04:28:44.754Z,1
2023-02-05T04:29:48.415Z,1
2023-02-05T04:30:52.332Z,0.9
2023-02-05T04:31:55.914Z,0.9
2023-02-05T04:32:59.767Z,0.9
2023-02-05T04:34:03.433Z,0.9
2023-02-05T04:35:06.502Z,0.9
2023-02-05T04:36:09.645Z,0.9
2023-02-05T04:37:13.353Z,0.9
2023-02-05T04:38:15.875Z,0.9
2023-02-05T04:39:19.166Z,0.9
2023-02-05T04:40:22.399Z,0.9
2023-02-05T04:41:25.918Z,0.9
2023-02-05T04:42:29.152Z,0.9
2023-02-05T04:43:33.258Z,0.9
2023-02-05T04:44:36.619Z,0.9
2023-02-05T04:45:40.920Z,0.9
2023-02-05T04:46:44.169Z,1
2023-02-05T04:47:47.617Z,1
2023-02-05T04:48:51.056Z,1
2023-02-05T04:49:54.494Z,0.9
2023-02-05T04:50:57.366Z,1
2023-02-05T04:52:00.456Z,1
2023-02-05T04:53:03.457Z,1
2023-02-05T04:54:06.163Z,1
2023-02-05T04:55:09.755Z,1
2023-02-05T04:56:12.930Z,1
2023-02-05T04:57:16.192Z,1
2023-02-05T04:58:19.458Z,1
2023-02-05T04:59:23.266Z,1
2023-02-05T05:00:26.326Z,1
2023-02-05T05:01:29.972Z,1
2023-02-05T05:02:33.557Z,1
2023-02-05T05:03:36.967Z,1
2023-02-05T05:04:43.191Z,1
2023-02-05T05:05:46.724Z,1
2023-02-05T05:06:50.185Z,1
2023-02-05T05:07:53.943Z,1
2023-02-05T05:08:57.075Z,1
2023-02-05T05:10:00.116Z,1.1
2023-02-05T05:11:03.395Z,1.1
2023-02-05T05:12:06.432Z,1.1
2023-02-05T05:13:09.566Z,1.1
2023-02-05T05:14:13.284Z,1.1
2023-02-05T05:15:17.169Z,1.1
2023-02-05T05:16:20.162Z,1.1
2023-02-05T05:17:23.928Z,1.1
2023-02-05T05:18:26.922Z,1.1
2023-02-05T05:19:29.899Z,1.1
2023-02-05T05:20:33.429Z,1.1
2023-02-05T05:21:36.703Z,1.1
2023-02-05T05:22:39.703Z,1.1
2023-02-05T05:23:41.865Z,1.1
2023-02-05T05:24:44.919Z,1.1
2023-02-05T05:25:47.419Z,1.1
2023-02-05T05:26:50.136Z,1.1
2023-02-05T05:27:53.455Z,1.1
2023-02-05T05:28:56.940Z,1.1
2023-02-05T05:30:00.344Z,1.1
2023-02-05T05:31:04.506Z,1
2023-02-05T05:32:07.919Z,1
2023-02-05T05:33:10.784Z,1
2023-02-05T05:34:14.084Z,1
2023-02-05T05:35:17.798Z,1
2023-02-05T05:36:21.147Z,1
2023-02-05T05:37:24.214Z,0.9
2023-02-05T05:38:26.924Z,0.9
2023-02-05T05:39:30.341Z,0.9
2023-02-05T05:40:33.770Z,0.9
2023-02-05T05:41:37.467Z,0.9
2023-02-05T05:42:40.267Z,0.9
2023-02-05T05:43:43.577Z,0.9
2023-02-05T05:44:47.312Z,0.9
2023-02-05T05:45:50.363Z,1
2023-02-05T05:46:54.580Z,1
2023-02-05T05:47:57.746Z,1
2023-02-05T05:49:00.258Z,1
2023-02-05T05:50:02.825Z,1
2023-02-05T05:51:06.297Z,1
2023-02-05T05:52:08.720Z,1
2023-02-05T05:53:11.157Z,1
2023-02-05T05:54:14.571Z,1
2023-02-05T05:55:17.677Z,1
2023-02-05T05:56:21.464Z,1
2023-02-05T05:57:24.683Z,1
2023-02-05T05:58:27.109Z,1
2023-02-05T05:59:29.801Z,1
2023-02-05T06:00:32.505Z,1
2023-02-05T06:01:35.998Z,1
2023-02-05T06:02:39.964Z,1
2023-02-05T06:03:43.213Z,1
2023-02-05T06:04:46.803Z,1
2023-02-05T06:05:50.375Z,1
2023-02-05T06:06:53.731Z,1
2023-02-05T06:07:55.956Z,1
2023-02-05T06:08:59.021Z,1
2023-02-05T06:10:02.512Z,1
2023-02-05T06:11:06.225Z,1
2023-02-05T06:12:12.580Z,1
2023-02-05T06:13:15.439Z,1
2023-02-05T06:14:18.491Z,1
2023-02-05T06:15:21.832Z,1
2023-02-05T06:16:25.201Z,1
2023-02-05T06:17:27.875Z,1
2023-02-05T06:18:31.987Z,1
2023-02-05T06:19:34.649Z,1
2023-02-05T06:20:37.668Z,1
2023-02-05T06:21:40.949Z,1
2023-02-05T06:22:44.004Z,1
2023-02-05T06:23:47.109Z,1
2023-02-05T06:24:50.470Z,1
2023-02-05T06:25:52.899Z,1
2023-02-05T06:26:56.031Z,1
2023-02-05T06:28:00.159Z,1
2023-02-05T06:29:03.015Z,1
2023-02-05T06:30:06.254Z,1
2023-02-05T06:31:10.141Z,1
2023-02-05T06:32:13.542Z,1
2023-02-05T06:33:17.666Z,1
2023-02-05T06:34:27.740Z,1
2023-02-05T06:35:30.918Z,1
2023-02-05T06:36:34.932Z,1
2023-02-05T06:37:48.546Z,1
2023-02-05T06:38:52.024Z,1
2023-02-05T06:39:55.357Z,1
2023-02-05T06:40:58.339Z,1
2023-02-05T06:42:01.242Z,1
2023-02-05T06:43:04.551Z,1
2023-02-05T06:44:07.912Z,1
2023-02-05T06:45:10.493Z,1
2023-02-05T06:46:14.425Z,1
2023-02-05T06:47:17.625Z,1
2023-02-05T06:48:21.128Z,1
2023-02-05T06:49:24.217Z,1
2023-02-05T06:50:28.185Z,1
2023-02-05T06:51:31.928Z,1
2023-02-05T06:52:35.008Z,1.1
2023-02-05T06:53:38.675Z,1
2023-02-05T06:54:41.242Z,1.1
2023-02-05T06:55:44.380Z,1
2023-02-05T06:56:47.537Z,1.1
2023-02-05T06:57:50.896Z,1
2023-02-05T06:58:54.249Z,1
2023-02-05T06:59:57.665Z,1.1
2023-02-05T07:01:00.826Z,1.1
2023-02-05T07:02:04.177Z,1.1
2023-02-05T07:03:07.187Z,1.1
2023-02-05T07:04:10.951Z,1
2023-02-05T07:05:14.319Z,1.1
2023-02-05T07:06:18.398Z,1
2023-02-05T07:07:21.666Z,1
2023-02-05T07:08:25.349Z,1.1
2023-02-05T07:09:28.152Z,1
2023-02-05T07:10:31.627Z,1.1
2023-02-05T07:11:34.177Z,1.1
2023-02-05T07:12:36.876Z,1.1
2023-02-05T07:13:40.594Z,1.1
2023-02-05T07:14:43.486Z,1.1
2023-02-05T07:15:46.672Z,1.1
2023-02-05T07:16:50.580Z,1.2
2023-02-05T07:17:53.294Z,1.2
2023-02-05T07:18:57.035Z,1.2
2023-02-05T07:19:59.944Z,1.2
2023-02-05T07:21:03.369Z,1.2
2023-02-05T07:22:07.464Z,1.2
2023-02-05T07:23:10.408Z,1.3
2023-02-05T07:24:13.201Z,1.3
2023-02-05T07:25:15.987Z,1.3
2023-02-05T07:26:18.695Z,1.3
2023-02-05T07:27:22.106Z,1.3
2023-02-05T07:28:25.262Z,1.3
2023-02-05T07:29:28.143Z,1.4
2023-02-05T07:30:31.504Z,1.4
2023-02-05T07:31:34.960Z,1.4
2023-02-05T07:32:38.337Z,1.4
2023-02-05T07:33:41.764Z,1.4
2023-02-05T07:34:44.739Z,1.4
2023-02-05T07:35:48.052Z,1.3
2023-02-05T07:36:51.522Z,1.3
2023-02-05T07:37:55.262Z,1.3
2023-02-05T07:38:58.343Z,1.3
2023-02-05T07:40:01.783Z,1.3
2023-02-05T07:41:05.500Z,1.3
2023-02-05T07:42:08.966Z,1.3
2023-02-05T07:43:12.302Z,1.3
2023-02-05T07:44:15.801Z,1.3
2023-02-05T07:45:19.232Z,1.3
2023-02-05T07:46:23.270Z,1.3
2023-02-05T07:47:26.459Z,1.3
2023-02-05T07:48:30.225Z,1.3
2023-02-05T07:49:33.683Z,1.3
2023-02-05T07:50:37.022Z,1.3
2023-02-05T07:51:40.544Z,1.3
2023-02-05T07:52:43.840Z,1.3
2023-02-05T07:53:47.325Z,1.3
2023-02-05T07:54:50.628Z,1.3
2023-02-05T07:55:54.653Z,1.3
2023-02-05T07:56:57.355Z,1.3
2023-02-05T07:58:00.789Z,1.3
2023-02-05T07:59:04.436Z,1.3
2023-02-05T08:00:07.843Z,1.4
2023-02-05T08:01:10.694Z,1.4
2023-02-05T08:02:13.653Z,1.4
2023-02-05T08:03:16.419Z,1.4
2023-02-05T08:04:19.650Z,1.4
2023-02-05T08:05:22.890Z,1.4
2023-02-05T08:06:26.001Z,1.5
2023-02-05T08:07:29.076Z,1.5
2023-02-05T08:08:32.264Z,1.5
2023-02-05T08:09:35.760Z,1.5
2023-02-05T08:10:39.467Z,1.5
2023-02-05T08:11:42.739Z,1.5
2023-02-05T08:12:46.086Z,1.5
2023-02-05T08:13:49.825Z,1.5
2023-02-05T08:14:52.908Z,1.5
2023-02-05T08:15:55.723Z,1.6
2023-02-05T08:16:59.662Z,1.6
2023-02-05T08:18:03.734Z,1.6
2023-02-05T08:19:06.265Z,1.6
2023-02-05T08:20:09.310Z,1.6
2023-02-05T08:21:12.375Z,1.6
2023-02-05T08:22:15.780Z,1.6
2023-02-05T08:23:19.478Z,1.6
2023-02-05T08:24:22.862Z,1.7
2023-02-05T08:25:26.823Z,1.7
2023-02-05T08:26:29.996Z,1.7
2023-02-05T08:27:33.112Z,1.7
2023-02-05T08:28:36.841Z,1.7
2023-02-05T08:29:39.579Z,1.7
2023-02-05T08:30:43.002Z,1.7
2023-02-05T08:31:46.802Z,1.8
2023-02-05T08:32:50.760Z,1.8
2023-02-05T08:33:53.457Z,1.8
2023-02-05T08:34:56.591Z,1.8
2023-02-05T08:35:59.747Z,1.8
2023-02-05T08:37:02.875Z,1.9
2023-02-05T08:38:06.517Z,1.9
2023-02-05T08:39:10.250Z,1.9
2023-02-05T08:40:13.015Z,1.9
2023-02-05T08:41:16.406Z,1.9
2023-02-05T08:42:19.954Z,1.9
2023-02-05T08:43:23.289Z,1.9
2023-02-05T08:44:25.997Z,1.9
2023-02-05T08:45:29.687Z,1.9
2023-02-05T08:46:51.050Z,2
2023-02-05T08:47:53.754Z,1.9
2023-02-05T08:48:57.119Z,2
2023-02-05T08:50:00.450Z,2
2023-02-05T08:51:03.933Z,2
2023-02-05T08:52:07.195Z,2
2023-02-05T08:53:10.530Z,2
2023-02-05T08:54:14.028Z,2
2023-02-05T08:55:18.088Z,2.1
2023-02-05T08:56:21.582Z,2.1
2023-02-05T08:57:24.665Z,2.1
2023-02-05T08:58:28.356Z,2.1
2023-02-05T08:59:31.784Z,2.1
2023-02-05T09:00:35.419Z,2.1
2023-02-05T09:01:37.932Z,2.2
2023-02-05T09:02:41.188Z,2.2
2023-02-05T09:03:44.295Z,2.2
2023-02-05T09:04:47.365Z,2.3
2023-02-05T09:05:51.089Z,2.3
2023-02-05T09:06:54.170Z,2.3
2023-02-05T09:07:57.830Z,2.3
2023-02-05T09:09:00.889Z,2.4
2023-02-05T09:10:03.998Z,2.4
2023-02-05T09:11:07.385Z,2.5
2023-02-05T09:12:11.767Z,2.5
2023-02-05T09:13:14.851Z,2.6
2023-02-05T09:14:18.026Z,2.6
2023-02-05T09:15:22.271Z,2.6
2023-02-05T09:16:25.517Z,2.7
2023-02-05T09:17:28.882Z,2.7
2023-02-05T09:18:32.597Z,2.7
2023-02-05T09:19:35.744Z,2.7
2023-02-05T09:20:39.152Z,2.7
2023-02-05T09:21:42.262Z,2.7
2023-02-05T09:22:45.561Z,2.8
2023-02-05T09:23:49.010Z,2.8
2023-02-05T09:24:52.708Z,2.8
2023-02-05T09:25:56.469Z,2.8
2023-02-05T09:26:59.646Z,2.8
2023-02-05T09:28:03.500Z,2.9
2023-02-05T09:29:07.138Z,2.9
2023-02-05T09:30:10.239Z,2.9
2023-02-05T09:31:13.908Z,2.9
2023-02-05T09:32:17.827Z,2.9
2023-02-05T09:33:21.436Z,3
2023-02-05T09:34:24.247Z,3
2023-02-05T09:35:27.676Z,3
2023-02-05T09:36:30.801Z,3.1
2023-02-05T09:37:33.715Z,3.1
2023-02-05T09:38:36.920Z,3.1
2023-02-05T09:40:23.532Z,3.2
2023-02-05T09:41:30.615Z,3.2
2023-02-05T09:42:34.410Z,3.3
2023-02-05T09:43:38.786Z,3.4
2023-02-05T09:44:42.174Z,3.4
2023-02-05T09:45:45.874Z,3.5
2023-02-05T09:46:49.306Z,3.5
2023-02-05T09:47:51.461Z,3.5
2023-02-05T09:48:54.458Z,3.4
2023-02-05T09:49:57.841Z,3.4
2023-02-05T09:51:00.922Z,3.4
2023-02-05T09:52:04.526Z,3.4
2023-02-05T09:53:08.231Z,3.4
2023-02-05T09:54:11.673Z,3.4
2023-02-05T09:55:13.968Z,3.4
2023-02-05T09:56:17.627Z,3.4
2023-02-05T09:57:20.689Z,3.4
2023-02-05T09:58:24.059Z,3.3
2023-02-05T09:59:28.122Z,3.4
2023-02-05T10:00:31.904Z,3.3
2023-02-05T10:01:35.719Z,3.3
2023-02-05T10:02:39.104Z,3.3
2023-02-05T10:03:42.005Z,3.3
2023-02-05T10:04:44.925Z,3.3
2023-02-05T10:05:48.272Z,3.3
2023-02-05T10:06:51.064Z,3.4
2023-02-05T10:07:54.166Z,3.4
2023-02-05T10:08:57.236Z,3.4
2023-02-05T10:10:00.550Z,3.5
2023-02-05T10:11:04.413Z,3.5
2023-02-05T10:12:08.134Z,3.5
2023-02-05T10:13:12.192Z,3.6
2023-02-05T10:14:15.727Z,3.6
2023-02-05T10:15:19.736Z,3.6
2023-02-05T10:16:23.293Z,3.7
2023-02-05T10:17:26.704Z,3.7
2023-02-05T10:18:30.416Z,3.7
2023-02-05T10:19:33.769Z,3.8
2023-02-05T10:20:37.570Z,3.8
2023-02-05T10:21:40.681Z,3.9
2023-02-05T10:22:43.389Z,3.9
2023-02-05T10:23:46.860Z,4
2023-02-05T10:24:50.024Z,4
2023-02-05T10:25:52.823Z,4.1
2023-02-05T10:26:55.521Z,4.2
2023-02-05T10:27:58.762Z,4.2
2023-02-05T10:29:02.090Z,4.3
2023-02-05T10:30:06.182Z,4.3
2023-02-05T10:31:10.407Z,4.4
2023-02-05T10:32:14.305Z,4.4
2023-02-05T10:33:17.679Z,4.5
2023-02-05T10:34:21.489Z,4.5
2023-02-05T10:35:24.644Z,4.6
2023-02-05T10:36:28.013Z,4.6
2023-02-05T10:37:31.091Z,4.6
2023-02-05T10:38:33.808Z,4.7
2023-02-05T10:39:36.576Z,4.7
2023-02-05T10:40:39.478Z,4.7
2023-02-05T10:41:42.910Z,4.7
2023-02-05T10:42:45.970Z,4.7
2023-02-05T10:43:48.936Z,4.6
2023-02-05T10:44:52.476Z,4.6
2023-02-05T10:45:55.664Z,4.7
2023-02-05T10:46:59.868Z,4.6
2023-02-05T10:48:03.625Z,4.7
2023-02-05T10:49:06.700Z,4.7
2023-02-05T10:50:10.340Z,4.7
2023-02-05T10:51:13.982Z,4.8
2023-02-05T10:52:16.732Z,4.9
2023-02-05T10:53:19.574Z,5
2023-02-05T10:54:22.670Z,5.1
2023-02-05T10:55:25.659Z,5.1
2023-02-05T10:56:29.104Z,5.2
2023-02-05T10:57:32.543Z,5.3
2023-02-05T10:58:35.070Z,5.4
2023-02-05T10:59:38.751Z,5.5
2023-02-05T11:00:42.771Z,5.6
2023-02-05T11:01:46.381Z,5.7
2023-02-05T11:02:51.017Z,5.8
2023-02-05T11:03:54.614Z,5.9
2023-02-05T11:04:58.339Z,6
2023-02-05T11:06:01.245Z,6
2023-02-05T11:07:03.704Z,6.1
2023-02-05T11:08:06.394Z,6.2
2023-02-05T11:09:09.384Z,6.2
2023-02-05T11:10:12.803Z,6.3
2023-02-05T11:11:16.268Z,6.4
2023-02-05T11:12:19.570Z,6.4
2023-02-05T11:13:22.956Z,6.4
2023-02-05T11:14:26.373Z,6.4
2023-02-05T11:15:29.704Z,6.3
2023-02-05T11:16:32.990Z,6.3
2023-02-05T11:17:36.397Z,6.3
2023-02-05T11:18:40.629Z,6.2
2023-02-05T11:19:44.388Z,6.2
2023-02-05T11:20:47.770Z,6.1
2023-02-05T11:21:50.902Z,6
2023-02-05T11:22:54.000Z,6
2023-02-05T11:23:56.607Z,5.9
2023-02-05T11:25:00.241Z,5.9
2023-02-05T11:26:02.772Z,5.9
2023-02-05T11:27:05.954Z,5.9
2023-02-05T11:28:09.634Z,5.9
2023-02-05T11:29:12.878Z,5.9
2023-02-05T11:30:15.963Z,5.9
2023-02-05T11:31:35.118Z,5.9
2023-02-05T11:32:38.809Z,5.9
2023-02-05T11:33:42.642Z,5.9
2023-02-05T11:34:45.897Z,5.9
2023-02-05T11:35:49.256Z,6
2023-02-05T11:36:52.996Z,6
2023-02-05T11:37:56.416Z,6
2023-02-05T11:38:59.517Z,6.1
2023-02-05T11:40:02.957Z,6.1
2023-02-05T11:41:06.039Z,6.1
2023-02-05T11:42:10.121Z,6.2
2023-02-05T11:43:12.898Z,6.2
2023-02-05T11:44:15.982Z,6.2
2023-02-05T11:45:19.422Z,6.3
2023-02-05T11:46:23.247Z,6.3
2023-02-05T11:47:27.456Z,6.3
2023-02-05T11:48:31.165Z,6.3
2023-02-05T11:49:34.562Z,6.3
2023-02-05T11:50:38.346Z,6.3
2023-02-05T11:51:41.337Z,6.3
2023-02-05T11:52:44.958Z,6.3
2023-02-05T11:53:48.467Z,6.3
2023-02-05T11:54:51.178Z,6.3
2023-02-05T11:55:54.616Z,6.3
2023-02-05T11:56:58.067Z,6.2
2023-02-05T11:58:01.772Z,6.2
2023-02-05T11:59:04.493Z,6.2
2023-02-05T12:00:07.548Z,6.2
2023-02-05T12:01:10.847Z,6.1
2023-02-05T12:02:14.412Z,6.1
2023-02-05T12:03:17.602Z,6.1
2023-02-05T12:04:20.391Z,6.1
2023-02-05T12:05:24.183Z,6.1
2023-02-05T12:06:27.545Z,6
2023-02-05T12:07:30.609Z,6
2023-02-05T12:08:33.976Z,5.9
2023-02-05T12:09:36.962Z,5.9
2023-02-05T12:10:40.126Z,5.9
2023-02-05T12:11:43.376Z,5.9
2023-02-05T12:12:46.489Z,5.8
2023-02-05T12:13:49.942Z,5.8
2023-02-05T12:14:53.191Z,5.7
2023-02-05T12:15:56.666Z,5.7
2023-02-05T12:17:00.465Z,5.7
2023-02-05T12:18:03.832Z,5.7
2023-02-05T12:19:06.903Z,5.7
2023-02-05T12:20:09.730Z,5.7
2023-02-05T12:21:13.476Z,5.7
2023-02-05T12:22:17.252Z,5.7
2023-02-05T12:23:19.969Z,5.7
2023-02-05T12:24:22.970Z,5.7
2023-02-05T12:25:26.353Z,5.7
2023-02-05T12:26:30.074Z,5.7
2023-02-05T12:27:33.129Z,5.7
2023-02-05T12:28:36.483Z,5.8
2023-02-05T12:29:39.444Z,5.8
2023-02-05T12:30:43.163Z,5.8
2023-02-05T12:31:46.527Z,5.7
2023-02-05T12:32:50.330Z,5.7
2023-02-05T12:34:08.096Z,5.7
2023-02-05T12:35:11.769Z,5.7
2023-02-05T12:36:15.463Z,5.7
2023-02-05T12:37:19.506Z,5.8
2023-02-05T12:38:33.520Z,5.8
2023-02-05T12:39:37.454Z,5.8
2023-02-05T12:40:40.878Z,5.8
2023-02-05T12:41:44.621Z,5.8
2023-02-05T12:42:47.131Z,5.8
2023-02-05T12:43:50.458Z,5.8
2023-02-05T12:44:53.166Z,5.7
2023-02-05T12:45:56.898Z,5.8
2023-02-05T12:47:00.275Z,5.8
2023-02-05T12:48:03.986Z,5.8
2023-02-05T12:49:06.865Z,5.8
2023-02-05T12:50:10.250Z,5.8
2023-02-05T12:51:13.369Z,5.8
2023-02-05T12:52:16.794Z,5.8
2023-02-05T12:53:20.659Z,5.9
2023-02-05T12:54:23.080Z,5.9
2023-02-05T12:55:26.407Z,5.9
2023-02-05T12:56:29.476Z,5.9
2023-02-05T12:57:32.655Z,6
2023-02-05T12:58:35.360Z,6
2023-02-05T12:59:38.680Z,6
2023-02-05T13:00:42.545Z,6
2023-02-05T13:01:45.667Z,6
2023-02-05T13:02:49.120Z,6
2023-02-05T13:03:52.686Z,6
2023-02-05T13:04:56.375Z,6.1
2023-02-05T13:05:59.365Z,6.1
2023-02-05T13:07:02.370Z,6.1
2023-02-05T13:08:05.848Z,6.1
2023-02-05T13:09:09.904Z,6.2
2023-02-05T13:10:12.942Z,6.2
2023-02-05T13:11:15.744Z,6.2
2023-02-05T13:12:19.152Z,6.2
2023-02-05T13:13:22.153Z,6.3
2023-02-05T13:14:24.856Z,6.3
2023-02-05T13:15:28.272Z,6.4
2023-02-05T13:16:31.864Z,6.5
2023-02-05T13:17:35.190Z,6.5
2023-02-05T13:18:38.596Z,6.6
2023-02-05T13:19:42.011Z,6.6
2023-02-05T13:20:45.765Z,6.6
2023-02-05T13:21:49.378Z,6.6
2023-02-05T13:22:52.833Z,6.6
2023-02-05T13:23:55.615Z,6.7
2023-02-05T13:24:59.715Z,6.7
2023-02-05T13:26:02.207Z,6.7
2023-02-05T13:27:05.564Z,6.7
2023-02-05T13:28:08.791Z,6.8
2023-02-05T13:29:15.102Z,6.8
2023-02-05T13:30:18.978Z,6.8
2023-02-05T13:31:23.600Z,6.8
2023-02-05T13:32:27.967Z,6.7
2023-02-05T13:33:31.285Z,6.7
2023-02-05T13:34:35.279Z,6.7
2023-02-05T13:35:38.432Z,6.7
2023-02-05T13:36:41.851Z,6.6
2023-02-05T13:37:45.157Z,6.6
2023-02-05T13:38:48.785Z,6.7
2023-02-05T13:39:51.578Z,6.7
2023-02-05T13:40:55.707Z,6.8
2023-02-05T13:41:59.718Z,6.9
2023-02-05T13:43:02.766Z,7
2023-02-05T13:44:06.454Z,7.1
2023-02-05T13:45:09.144Z,7.3
2023-02-05T13:46:13.049Z,7.4
2023-02-05T13:47:16.552Z,7.5
2023-02-05T13:48:19.045Z,7.6
2023-02-05T13:49:22.673Z,7.7
2023-02-05T13:50:25.368Z,7.7
2023-02-05T13:51:28.708Z,7.7
2023-02-05T13:52:32.443Z,7.8
2023-02-05T13:53:35.855Z,7.8
2023-02-05T13:54:39.697Z,7.8
2023-02-05T13:55:43.421Z,7.8
2023-02-05T13:56:46.993Z,7.8
2023-02-05T13:57:50.603Z,7.8
2023-02-05T13:58:53.743Z,7.9
2023-02-05T13:59:57.474Z,7.9
2023-02-05T14:01:00.939Z,7.9
2023-02-05T14:02:04.148Z,7.9
2023-02-05T14:03:07.618Z,7.8
2023-02-05T14:04:11.456Z,7.8
2023-02-05T14:05:13.834Z,7.8
2023-02-05T14:06:17.225Z,7.7
2023-02-05T14:07:19.688Z,7.7
2023-02-05T14:08:23.317Z,7.7
2023-02-05T14:09:26.375Z,7.7
2023-02-05T14:10:29.732Z,7.7
2023-02-05T14:11:33.154Z,7.7
2023-02-05T14:12:42.524Z,7.6
2023-02-05T14:13:45.986Z,7.6
2023-02-05T14:14:49.431Z,7.6
2023-02-05T14:15:52.594Z,7.5
2023-02-05T14:16:56.154Z,7.5
2023-02-05T14:17:58.600Z,7.4
2023-02-05T14:19:02.069Z,7.3
2023-02-05T14:20:05.564Z,7.3
2023-02-05T14:21:08.279Z,7.3
2023-02-05T14:22:10.440Z,7.2
2023-02-05T14:23:13.873Z,7.2
2023-02-05T14:24:17.040Z,7.2
2023-02-05T14:25:19.535Z,7.2
2023-02-05T14:26:22.536Z,7.2
2023-02-05T14:27:25.643Z,7.1
2023-02-05T14:28:29.504Z,7.1
2023-02-05T14:29:33.133Z,7.1
2023-02-05T14:30:36.885Z,7
2023-02-05T14:31:40.669Z,7
2023-02-05T14:32:44.492Z,7
2023-02-05T14:33:48.294Z,7
2023-02-05T14:34:50.746Z,7
2023-02-05T14:35:53.828Z,6.9
2023-02-05T14:36:56.541Z,6.9
2023-02-05T14:37:59.261Z,6.9
2023-02-05T14:39:02.646Z,6.9
2023-02-05T14:40:06.195Z,6.9
2023-02-05T14:41:09.341Z,6.9
2023-02-05T14:42:12.496Z,6.8
2023-02-05T14:43:16.313Z,6.9
2023-02-05T14:44:20.388Z,6.9
2023-02-05T14:45:23.812Z,6.9
2023-02-05T14:46:27.214Z,6.9